sensor_id;sensor_type;location;lat;lon;timestamp;P1;durP1;ratioP1;P2;durP2;ratioP2
6825;SDS011;3451;52.476;13.316;2022-10-16T00:01:09;2.37;;;1.70;;
6825;SDS011;3451;52.476;13.316;2022-10-16T00:03:40;3.40;;;1.70;;
6825;SDS011;3451;52.476;13.316;2022-10-16T00:06:07;2.00;;;1.77;;
6825;SDS011;3451;52.476;13.316;2022-10-16T00:08:34;2.10;;;1.80;;
6825;SDS011;3451;52.476;13.316;2022-10-16T00:13:30;2.00;;;1.70;;
6825;SDS011;3451;52.476;13.316;2022-10-16T00:15:57;1.73;;;1.50;;
6825;SDS011;3451;52.476;13.316;2022-10-16T00:18:23;4.70;;;1.80;;
6825;SDS011;3451;52.476;13.316;2022-10-16T00:20:50;2.90;;;1.60;;
6825;SDS011;3451;52.476;13.316;2022-10-16T00:23:17;1.70;;;1.60;;
6825;SDS011;3451;52.476;13.316;2022-10-16T00:25:43;2.00;;;1.70;;
6825;SDS011;3451;52.476;13.316;2022-10-16T00:28:09;2.57;;;1.70;;
6825;SDS011;3451;52.476;13.316;2022-10-16T00:30:39;2.00;;;1.80;;
6825;SDS011;3451;52.476;13.316;2022-10-16T00:33:06;2.90;;;1.70;;
6825;SDS011;3451;52.476;13.316;2022-10-16T00:35:32;2.10;;;1.80;;
6825;SDS011;3451;52.476;13.316;2022-10-16T00:37:58;1.90;;;1.70;;
6825;SDS011;3451;52.476;13.316;2022-10-16T00:40:25;2.63;;;1.60;;
6825;SDS011;3451;52.476;13.316;2022-10-16T00:42:51;4.03;;;1.40;;
6825;SDS011;3451;52.476;13.316;2022-10-16T00:45:17;2.27;;;1.70;;
6825;SDS011;3451;52.476;13.316;2022-10-16T00:47:44;3.03;;;1.60;;
6825;SDS011;3451;52.476;13.316;2022-10-16T00:50:13;1.97;;;1.67;;
6825;SDS011;3451;52.476;13.316;2022-10-16T00:52:43;1.80;;;1.53;;
6825;SDS011;3451;52.476;13.316;2022-10-16T00:55:10;2.30;;;1.50;;
6825;SDS011;3451;52.476;13.316;2022-10-16T00:57:36;1.70;;;1.50;;
6825;SDS011;3451;52.476;13.316;2022-10-16T01:00:04;1.47;;;1.30;;
6825;SDS011;3451;52.476;13.316;2022-10-16T01:02:31;1.60;;;1.47;;
6825;SDS011;3451;52.476;13.316;2022-10-16T01:04:57;2.00;;;1.70;;
6825;SDS011;3451;52.476;13.316;2022-10-16T01:09:59;3.33;;;1.90;;
6825;SDS011;3451;52.476;13.316;2022-10-16T01:14:56;1.60;;;1.50;;
6825;SDS011;3451;52.476;13.316;2022-10-16T01:17:33;2.00;;;1.80;;
6825;SDS011;3451;52.476;13.316;2022-10-16T01:22:31;1.50;;;1.40;;
6825;SDS011;3451;52.476;13.316;2022-10-16T01:24:59;4.10;;;1.53;;
6825;SDS011;3451;52.476;13.316;2022-10-16T01:27:30;2.20;;;1.47;;
6825;SDS011;3451;52.476;13.316;2022-10-16T01:30:02;2.20;;;1.50;;
6825;SDS011;3451;52.476;13.316;2022-10-16T01:32:36;3.43;;;1.53;;
6825;SDS011;3451;52.476;13.316;2022-10-16T01:35:05;2.07;;;1.70;;
6825;SDS011;3451;52.476;13.316;2022-10-16T01:37:38;2.13;;;1.50;;
6825;SDS011;3451;52.476;13.316;2022-10-16T01:40:10;2.13;;;1.47;;
6825;SDS011;3451;52.476;13.316;2022-10-16T01:42:38;1.83;;;1.43;;
6825;SDS011;3451;52.476;13.316;2022-10-16T01:45:06;4.03;;;1.67;;
6825;SDS011;3451;52.476;13.316;2022-10-16T01:47:33;1.87;;;1.57;;
6825;SDS011;3451;52.476;13.316;2022-10-16T01:50:02;8.20;;;1.60;;
6825;SDS011;3451;52.476;13.316;2022-10-16T01:52:30;2.13;;;1.60;;
6825;SDS011;3451;52.476;13.316;2022-10-16T01:54:57;1.93;;;1.60;;
6825;SDS011;3451;52.476;13.316;2022-10-16T01:57:25;2.40;;;1.60;;
6825;SDS011;3451;52.476;13.316;2022-10-16T01:59:52;1.73;;;1.50;;
6825;SDS011;3451;52.476;13.316;2022-10-16T02:02:21;2.90;;;1.60;;
6825;SDS011;3451;52.476;13.316;2022-10-16T02:04:56;1.77;;;1.50;;
6825;SDS011;3451;52.476;13.316;2022-10-16T02:07:24;2.03;;;1.50;;
6825;SDS011;3451;52.476;13.316;2022-10-16T02:09:50;5.43;;;1.83;;
6825;SDS011;3451;52.476;13.316;2022-10-16T02:12:23;3.20;;;1.70;;
6825;SDS011;3451;52.476;13.316;2022-10-16T02:14:51;4.17;;;1.40;;
6825;SDS011;3451;52.476;13.316;2022-10-16T02:17:19;1.73;;;1.60;;
6825;SDS011;3451;52.476;13.316;2022-10-16T02:19:46;1.90;;;1.60;;
6825;SDS011;3451;52.476;13.316;2022-10-16T02:22:32;2.20;;;1.60;;
6825;SDS011;3451;52.476;13.316;2022-10-16T02:25:04;3.43;;;1.60;;
6825;SDS011;3451;52.476;13.316;2022-10-16T02:32:43;2.03;;;1.60;;
6825;SDS011;3451;52.476;13.316;2022-10-16T02:35:10;2.23;;;1.70;;
6825;SDS011;3451;52.476;13.316;2022-10-16T02:37:37;1.67;;;1.43;;
6825;SDS011;3451;52.476;13.316;2022-10-16T02:40:04;2.30;;;1.67;;
6825;SDS011;3451;52.476;13.316;2022-10-16T02:42:33;2.20;;;1.60;;
6825;SDS011;3451;52.476;13.316;2022-10-16T02:45:00;2.90;;;1.40;;
6825;SDS011;3451;52.476;13.316;2022-10-16T02:47:26;2.40;;;1.57;;
6825;SDS011;3451;52.476;13.316;2022-10-16T02:49:52;1.87;;;1.40;;
6825;SDS011;3451;52.476;13.316;2022-10-16T02:52:19;1.67;;;1.50;;
6825;SDS011;3451;52.476;13.316;2022-10-16T02:54:45;2.63;;;1.60;;
6825;SDS011;3451;52.476;13.316;2022-10-16T02:57:11;4.37;;;1.60;;
6825;SDS011;3451;52.476;13.316;2022-10-16T02:59:38;2.13;;;1.40;;
6825;SDS011;3451;52.476;13.316;2022-10-16T03:02:04;2.00;;;1.60;;
6825;SDS011;3451;52.476;13.316;2022-10-16T03:04:30;3.10;;;1.57;;
6825;SDS011;3451;52.476;13.316;2022-10-16T03:06:56;1.83;;;1.63;;
6825;SDS011;3451;52.476;13.316;2022-10-16T03:09:23;2.27;;;1.50;;
6825;SDS011;3451;52.476;13.316;2022-10-16T03:11:49;1.67;;;1.37;;
6825;SDS011;3451;52.476;13.316;2022-10-16T03:14:15;3.10;;;1.60;;
6825;SDS011;3451;52.476;13.316;2022-10-16T03:16:42;1.40;;;1.30;;
6825;SDS011;3451;52.476;13.316;2022-10-16T03:19:08;1.50;;;1.40;;
6825;SDS011;3451;52.476;13.316;2022-10-16T03:21:34;1.97;;;1.50;;
6825;SDS011;3451;52.476;13.316;2022-10-16T03:24:01;2.93;;;1.80;;
6825;SDS011;3451;52.476;13.316;2022-10-16T03:26:27;1.47;;;1.37;;
6825;SDS011;3451;52.476;13.316;2022-10-16T03:28:53;3.70;;;1.60;;
6825;SDS011;3451;52.476;13.316;2022-10-16T03:31:20;2.77;;;1.50;;
6825;SDS011;3451;52.476;13.316;2022-10-16T03:33:46;2.50;;;1.60;;
6825;SDS011;3451;52.476;13.316;2022-10-16T03:36:12;2.20;;;1.70;;
6825;SDS011;3451;52.476;13.316;2022-10-16T03:38:39;2.33;;;1.33;;
6825;SDS011;3451;52.476;13.316;2022-10-16T03:41:05;3.30;;;1.53;;
6825;SDS011;3451;52.476;13.316;2022-10-16T03:43:33;2.30;;;1.83;;
6825;SDS011;3451;52.476;13.316;2022-10-16T03:45:59;1.90;;;1.70;;
6825;SDS011;3451;52.476;13.316;2022-10-16T03:48:26;4.40;;;1.73;;
6825;SDS011;3451;52.476;13.316;2022-10-16T03:50:52;4.80;;;1.57;;
6825;SDS011;3451;52.476;13.316;2022-10-16T03:53:18;1.57;;;1.37;;
6825;SDS011;3451;52.476;13.316;2022-10-16T03:55:45;5.00;;;1.80;;
6825;SDS011;3451;52.476;13.316;2022-10-16T03:58:11;2.43;;;1.60;;
6825;SDS011;3451;52.476;13.316;2022-10-16T04:00:44;1.97;;;1.77;;
6825;SDS011;3451;52.476;13.316;2022-10-16T04:03:11;2.37;;;1.63;;
6825;SDS011;3451;52.476;13.316;2022-10-16T04:05:37;1.90;;;1.53;;
6825;SDS011;3451;52.476;13.316;2022-10-16T04:08:04;4.20;;;1.47;;
6825;SDS011;3451;52.476;13.316;2022-10-16T04:10:30;3.43;;;1.73;;
6825;SDS011;3451;52.476;13.316;2022-10-16T04:12:56;2.13;;;1.60;;
6825;SDS011;3451;52.476;13.316;2022-10-16T04:15:23;1.90;;;1.57;;
6825;SDS011;3451;52.476;13.316;2022-10-16T04:17:49;1.93;;;1.50;;
6825;SDS011;3451;52.476;13.316;2022-10-16T04:20:15;2.57;;;1.80;;
6825;SDS011;3451;52.476;13.316;2022-10-16T04:22:42;3.60;;;1.97;;
6825;SDS011;3451;52.476;13.316;2022-10-16T04:25:08;1.93;;;1.63;;
6825;SDS011;3451;52.476;13.316;2022-10-16T04:27:35;1.97;;;1.60;;
6825;SDS011;3451;52.476;13.316;2022-10-16T04:30:01;1.70;;;1.50;;
6825;SDS011;3451;52.476;13.316;2022-10-16T04:32:27;3.13;;;1.70;;
6825;SDS011;3451;52.476;13.316;2022-10-16T04:34:53;6.90;;;2.10;;
6825;SDS011;3451;52.476;13.316;2022-10-16T04:37:23;2.93;;;1.73;;
6825;SDS011;3451;52.476;13.316;2022-10-16T04:39:50;2.37;;;1.70;;
6825;SDS011;3451;52.476;13.316;2022-10-16T04:42:16;2.00;;;1.60;;
6825;SDS011;3451;52.476;13.316;2022-10-16T04:44:42;2.17;;;1.50;;
6825;SDS011;3451;52.476;13.316;2022-10-16T04:47:09;1.90;;;1.70;;
6825;SDS011;3451;52.476;13.316;2022-10-16T04:49:35;1.60;;;1.50;;
6825;SDS011;3451;52.476;13.316;2022-10-16T04:52:01;1.90;;;1.50;;
6825;SDS011;3451;52.476;13.316;2022-10-16T04:54:27;2.20;;;1.90;;
6825;SDS011;3451;52.476;13.316;2022-10-16T04:56:54;1.90;;;1.70;;
6825;SDS011;3451;52.476;13.316;2022-10-16T04:59:20;2.17;;;1.70;;
6825;SDS011;3451;52.476;13.316;2022-10-16T05:01:46;2.20;;;1.73;;
6825;SDS011;3451;52.476;13.316;2022-10-16T05:04:12;2.93;;;1.97;;
6825;SDS011;3451;52.476;13.316;2022-10-16T05:06:41;3.07;;;1.60;;
6825;SDS011;3451;52.476;13.316;2022-10-16T05:09:07;3.67;;;1.70;;
6825;SDS011;3451;52.476;13.316;2022-10-16T05:11:34;1.93;;;1.70;;
6825;SDS011;3451;52.476;13.316;2022-10-16T05:14:00;1.80;;;1.70;;
6825;SDS011;3451;52.476;13.316;2022-10-16T05:16:26;2.37;;;1.70;;
6825;SDS011;3451;52.476;13.316;2022-10-16T05:18:53;2.50;;;1.83;;
6825;SDS011;3451;52.476;13.316;2022-10-16T05:21:35;1.60;;;1.50;;
6825;SDS011;3451;52.476;13.316;2022-10-16T05:24:01;2.73;;;2.00;;
6825;SDS011;3451;52.476;13.316;2022-10-16T05:26:27;2.00;;;1.70;;
6825;SDS011;3451;52.476;13.316;2022-10-16T05:28:54;2.83;;;2.10;;
6825;SDS011;3451;52.476;13.316;2022-10-16T05:31:20;3.83;;;1.90;;
6825;SDS011;3451;52.476;13.316;2022-10-16T05:33:46;3.50;;;1.70;;
6825;SDS011;3451;52.476;13.316;2022-10-16T05:36:18;3.10;;;1.90;;
6825;SDS011;3451;52.476;13.316;2022-10-16T05:38:44;2.20;;;2.00;;
6825;SDS011;3451;52.476;13.316;2022-10-16T05:41:10;2.63;;;2.10;;
6825;SDS011;3451;52.476;13.316;2022-10-16T05:43:36;2.43;;;2.00;;
6825;SDS011;3451;52.476;13.316;2022-10-16T05:46:04;3.50;;;1.90;;
6825;SDS011;3451;52.476;13.316;2022-10-16T05:48:31;4.00;;;2.00;;
6825;SDS011;3451;52.476;13.316;2022-10-16T05:50:59;3.93;;;1.90;;
6825;SDS011;3451;52.476;13.316;2022-10-16T05:53:27;4.17;;;2.00;;
6825;SDS011;3451;52.476;13.316;2022-10-16T05:55:53;2.40;;;1.90;;
6825;SDS011;3451;52.476;13.316;2022-10-16T05:58:20;3.60;;;2.27;;
6825;SDS011;3451;52.476;13.316;2022-10-16T06:00:53;2.43;;;2.00;;
6825;SDS011;3451;52.476;13.316;2022-10-16T06:03:20;2.87;;;2.13;;
6825;SDS011;3451;52.476;13.316;2022-10-16T06:05:46;2.47;;;2.10;;
6825;SDS011;3451;52.476;13.316;2022-10-16T06:08:12;7.87;;;1.90;;
6825;SDS011;3451;52.476;13.316;2022-10-16T06:10:38;3.43;;;2.30;;
6825;SDS011;3451;52.476;13.316;2022-10-16T06:13:05;2.40;;;2.20;;
6825;SDS011;3451;52.476;13.316;2022-10-16T06:15:31;2.60;;;2.37;;
6825;SDS011;3451;52.476;13.316;2022-10-16T06:17:57;3.67;;;2.10;;
6825;SDS011;3451;52.476;13.316;2022-10-16T06:20:23;4.63;;;2.30;;
6825;SDS011;3451;52.476;13.316;2022-10-16T06:22:50;3.93;;;2.50;;
6825;SDS011;3451;52.476;13.316;2022-10-16T06:25:16;2.47;;;2.20;;
6825;SDS011;3451;52.476;13.316;2022-10-16T06:27:42;3.17;;;2.50;;
6825;SDS011;3451;52.476;13.316;2022-10-16T06:30:09;4.43;;;2.53;;
6825;SDS011;3451;52.476;13.316;2022-10-16T06:32:35;4.93;;;2.20;;
6825;SDS011;3451;52.476;13.316;2022-10-16T06:35:01;3.07;;;2.23;;
6825;SDS011;3451;52.476;13.316;2022-10-16T06:37:28;3.87;;;2.10;;
6825;SDS011;3451;52.476;13.316;2022-10-16T06:39:54;2.70;;;2.10;;
6825;SDS011;3451;52.476;13.316;2022-10-16T06:42:21;2.60;;;2.20;;
6825;SDS011;3451;52.476;13.316;2022-10-16T06:44:47;2.80;;;2.20;;
6825;SDS011;3451;52.476;13.316;2022-10-16T06:47:13;3.37;;;1.90;;
6825;SDS011;3451;52.476;13.316;2022-10-16T06:49:39;3.83;;;2.30;;
6825;SDS011;3451;52.476;13.316;2022-10-16T06:52:06;5.17;;;2.00;;
6825;SDS011;3451;52.476;13.316;2022-10-16T06:54:32;3.20;;;2.10;;
6825;SDS011;3451;52.476;13.316;2022-10-16T06:57:07;1.80;;;1.67;;
6825;SDS011;3451;52.476;13.316;2022-10-16T06:59:34;8.90;;;2.50;;
6825;SDS011;3451;52.476;13.316;2022-10-16T07:02:00;5.20;;;1.93;;
6825;SDS011;3451;52.476;13.316;2022-10-16T07:04:27;2.50;;;2.10;;
6825;SDS011;3451;52.476;13.316;2022-10-16T07:06:53;3.40;;;1.90;;
6825;SDS011;3451;52.476;13.316;2022-10-16T07:09:20;2.10;;;1.87;;
6825;SDS011;3451;52.476;13.316;2022-10-16T07:11:46;4.13;;;2.03;;
6825;SDS011;3451;52.476;13.316;2022-10-16T07:14:15;1.80;;;1.60;;
6825;SDS011;3451;52.476;13.316;2022-10-16T07:16:41;2.93;;;2.00;;
6825;SDS011;3451;52.476;13.316;2022-10-16T07:19:08;3.03;;;1.90;;
6825;SDS011;3451;52.476;13.316;2022-10-16T07:21:34;3.70;;;1.90;;
6825;SDS011;3451;52.476;13.316;2022-10-16T07:24:04;5.40;;;1.93;;
6825;SDS011;3451;52.476;13.316;2022-10-16T07:26:32;2.40;;;1.80;;
6825;SDS011;3451;52.476;13.316;2022-10-16T07:28:59;2.07;;;1.50;;
6825;SDS011;3451;52.476;13.316;2022-10-16T07:31:26;4.70;;;1.70;;
6825;SDS011;3451;52.476;13.316;2022-10-16T07:33:53;3.90;;;2.10;;
6825;SDS011;3451;52.476;13.316;2022-10-16T07:36:20;3.23;;;1.53;;
6825;SDS011;3451;52.476;13.316;2022-10-16T07:38:46;1.70;;;1.40;;
6825;SDS011;3451;52.476;13.316;2022-10-16T07:41:15;2.23;;;1.50;;
6825;SDS011;3451;52.476;13.316;2022-10-16T07:43:45;2.13;;;1.57;;
6825;SDS011;3451;52.476;13.316;2022-10-16T07:46:11;2.17;;;1.57;;
6825;SDS011;3451;52.476;13.316;2022-10-16T07:48:38;2.37;;;1.70;;
6825;SDS011;3451;52.476;13.316;2022-10-16T07:51:05;2.30;;;1.40;;
6825;SDS011;3451;52.476;13.316;2022-10-16T07:53:31;1.60;;;1.47;;
6825;SDS011;3451;52.476;13.316;2022-10-16T07:55:58;3.90;;;1.40;;
6825;SDS011;3451;52.476;13.316;2022-10-16T07:58:26;2.87;;;1.23;;
6825;SDS011;3451;52.476;13.316;2022-10-16T08:00:52;3.00;;;1.50;;
6825;SDS011;3451;52.476;13.316;2022-10-16T08:03:18;2.27;;;1.27;;
6825;SDS011;3451;52.476;13.316;2022-10-16T08:05:45;1.77;;;1.40;;
6825;SDS011;3451;52.476;13.316;2022-10-16T08:08:15;2.47;;;1.53;;
6825;SDS011;3451;52.476;13.316;2022-10-16T08:10:42;2.57;;;1.50;;
6825;SDS011;3451;52.476;13.316;2022-10-16T08:13:09;2.40;;;1.47;;
6825;SDS011;3451;52.476;13.316;2022-10-16T08:15:35;3.37;;;1.60;;
6825;SDS011;3451;52.476;13.316;2022-10-16T08:18:03;1.97;;;1.60;;
6825;SDS011;3451;52.476;13.316;2022-10-16T08:20:30;2.23;;;1.40;;
6825;SDS011;3451;52.476;13.316;2022-10-16T08:22:56;2.60;;;1.30;;
6825;SDS011;3451;52.476;13.316;2022-10-16T08:25:23;1.83;;;1.20;;
6825;SDS011;3451;52.476;13.316;2022-10-16T08:27:49;2.00;;;1.40;;
6825;SDS011;3451;52.476;13.316;2022-10-16T08:30:16;2.97;;;1.27;;
6825;SDS011;3451;52.476;13.316;2022-10-16T08:32:43;2.90;;;1.40;;
6825;SDS011;3451;52.476;13.316;2022-10-16T08:35:10;5.00;;;1.90;;
6825;SDS011;3451;52.476;13.316;2022-10-16T08:37:37;1.50;;;1.00;;
6825;SDS011;3451;52.476;13.316;2022-10-16T08:40:04;1.50;;;1.20;;
6825;SDS011;3451;52.476;13.316;2022-10-16T08:42:53;3.57;;;1.37;;
6825;SDS011;3451;52.476;13.316;2022-10-16T08:50:35;2.90;;;1.23;;
6825;SDS011;3451;52.476;13.316;2022-10-16T08:53:03;3.30;;;1.20;;
6825;SDS011;3451;52.476;13.316;2022-10-16T08:55:31;1.93;;;1.37;;
6825;SDS011;3451;52.476;13.316;2022-10-16T08:58:00;1.73;;;1.30;;
6825;SDS011;3451;52.476;13.316;2022-10-16T09:00:27;2.20;;;1.40;;
6825;SDS011;3451;52.476;13.316;2022-10-16T09:03:03;2.40;;;1.40;;
6825;SDS011;3451;52.476;13.316;2022-10-16T09:08:01;1.40;;;1.20;;
6825;SDS011;3451;52.476;13.316;2022-10-16T09:23:30;2.03;;;1.20;;
6825;SDS011;3451;52.476;13.316;2022-10-16T09:25:58;3.57;;;1.20;;
6825;SDS011;3451;52.476;13.316;2022-10-16T09:28:25;5.60;;;1.30;;
6825;SDS011;3451;52.476;13.316;2022-10-16T09:30:51;1.90;;;1.13;;
6825;SDS011;3451;52.476;13.316;2022-10-16T09:33:18;2.13;;;1.10;;
6825;SDS011;3451;52.476;13.316;2022-10-16T09:35:51;1.57;;;1.10;;
6825;SDS011;3451;52.476;13.316;2022-10-16T09:38:32;1.33;;;0.90;;
6825;SDS011;3451;52.476;13.316;2022-10-16T09:41:02;1.67;;;1.20;;
6825;SDS011;3451;52.476;13.316;2022-10-16T09:43:38;2.63;;;1.03;;
6825;SDS011;3451;52.476;13.316;2022-10-16T09:46:06;2.33;;;1.10;;
6825;SDS011;3451;52.476;13.316;2022-10-16T09:48:37;1.63;;;1.00;;
6825;SDS011;3451;52.476;13.316;2022-10-16T09:51:05;2.67;;;1.03;;
6825;SDS011;3451;52.476;13.316;2022-10-16T09:53:40;2.33;;;1.00;;
6825;SDS011;3451;52.476;13.316;2022-10-16T09:56:06;3.47;;;1.20;;
6825;SDS011;3451;52.476;13.316;2022-10-16T09:58:38;1.53;;;1.10;;
6825;SDS011;3451;52.476;13.316;2022-10-16T10:01:11;3.07;;;1.10;;
6825;SDS011;3451;52.476;13.316;2022-10-16T10:03:39;2.77;;;1.40;;
6825;SDS011;3451;52.476;13.316;2022-10-16T10:06:25;2.23;;;1.00;;
6825;SDS011;3451;52.476;13.316;2022-10-16T10:11:38;2.53;;;1.10;;
6825;SDS011;3451;52.476;13.316;2022-10-16T10:14:05;3.70;;;1.00;;
6825;SDS011;3451;52.476;13.316;2022-10-16T10:16:32;1.73;;;1.07;;
6825;SDS011;3451;52.476;13.316;2022-10-16T10:18:59;1.20;;;0.90;;
6825;SDS011;3451;52.476;13.316;2022-10-16T10:21:25;2.60;;;1.00;;
6825;SDS011;3451;52.476;13.316;2022-10-16T10:23:57;1.80;;;0.83;;
6825;SDS011;3451;52.476;13.316;2022-10-16T10:26:24;1.30;;;0.73;;
6825;SDS011;3451;52.476;13.316;2022-10-16T10:28:55;2.13;;;0.87;;
6825;SDS011;3451;52.476;13.316;2022-10-16T10:31:28;3.27;;;0.83;;
6825;SDS011;3451;52.476;13.316;2022-10-16T10:36:42;1.00;;;0.70;;
6825;SDS011;3451;52.476;13.316;2022-10-16T10:39:15;2.80;;;1.17;;
6825;SDS011;3451;52.476;13.316;2022-10-16T10:49:54;1.10;;;0.97;;
6825;SDS011;3451;52.476;13.316;2022-10-16T10:52:43;4.27;;;1.20;;
6825;SDS011;3451;52.476;13.316;2022-10-16T11:10:33;2.60;;;1.00;;
6825;SDS011;3451;52.476;13.316;2022-10-16T11:13:06;2.83;;;0.80;;
6825;SDS011;3451;52.476;13.316;2022-10-16T11:15:36;5.13;;;0.90;;
6825;SDS011;3451;52.476;13.316;2022-10-16T11:18:06;2.80;;;1.03;;
6825;SDS011;3451;52.476;13.316;2022-10-16T11:20:45;2.13;;;0.80;;
6825;SDS011;3451;52.476;13.316;2022-10-16T11:23:18;4.63;;;1.00;;
6825;SDS011;3451;52.476;13.316;2022-10-16T11:25:46;2.50;;;0.90;;
6825;SDS011;3451;52.476;13.316;2022-10-16T11:28:14;2.93;;;0.90;;
6825;SDS011;3451;52.476;13.316;2022-10-16T11:30:47;1.70;;;0.70;;
6825;SDS011;3451;52.476;13.316;2022-10-16T11:38:32;0.90;;;0.80;;
6825;SDS011;3451;52.476;13.316;2022-10-16T11:41:01;0.70;;;0.70;;
6825;SDS011;3451;52.476;13.316;2022-10-16T11:43:33;3.07;;;1.20;;
6825;SDS011;3451;52.476;13.316;2022-10-16T11:46:04;1.63;;;0.77;;
6825;SDS011;3451;52.476;13.316;2022-10-16T11:48:43;8.37;;;1.10;;
6825;SDS011;3451;52.476;13.316;2022-10-16T11:51:14;3.03;;;0.90;;
6825;SDS011;3451;52.476;13.316;2022-10-16T11:53:53;2.30;;;0.80;;
6825;SDS011;3451;52.476;13.316;2022-10-16T11:56:22;2.60;;;1.17;;
6825;SDS011;3451;52.476;13.316;2022-10-16T11:58:53;3.07;;;0.90;;
6825;SDS011;3451;52.476;13.316;2022-10-16T12:01:26;3.63;;;0.73;;
6825;SDS011;3451;52.476;13.316;2022-10-16T12:04:00;1.80;;;0.90;;
6825;SDS011;3451;52.476;13.316;2022-10-16T12:09:19;2.00;;;0.80;;
6825;SDS011;3451;52.476;13.316;2022-10-16T12:11:47;1.43;;;0.83;;
6825;SDS011;3451;52.476;13.316;2022-10-16T12:16:52;1.43;;;0.90;;
6825;SDS011;3451;52.476;13.316;2022-10-16T12:19:19;3.57;;;0.90;;
6825;SDS011;3451;52.476;13.316;2022-10-16T12:21:46;1.47;;;0.90;;
6825;SDS011;3451;52.476;13.316;2022-10-16T12:26:57;7.80;;;1.00;;
6825;SDS011;3451;52.476;13.316;2022-10-16T12:29:31;1.87;;;0.97;;
6825;SDS011;3451;52.476;13.316;2022-10-16T12:31:58;1.27;;;0.70;;
6825;SDS011;3451;52.476;13.316;2022-10-16T12:34:28;1.53;;;0.80;;
6825;SDS011;3451;52.476;13.316;2022-10-16T12:36:55;1.13;;;0.70;;
6825;SDS011;3451;52.476;13.316;2022-10-16T12:39:22;3.70;;;1.57;;
6825;SDS011;3451;52.476;13.316;2022-10-16T12:42:00;1.07;;;0.80;;
6825;SDS011;3451;52.476;13.316;2022-10-16T12:44:26;1.80;;;0.67;;
6825;SDS011;3451;52.476;13.316;2022-10-16T12:46:57;2.47;;;0.80;;
6825;SDS011;3451;52.476;13.316;2022-10-16T12:49:29;1.87;;;0.80;;
6825;SDS011;3451;52.476;13.316;2022-10-16T12:51:56;1.23;;;0.70;;
6825;SDS011;3451;52.476;13.316;2022-10-16T12:54:30;1.83;;;0.93;;
6825;SDS011;3451;52.476;13.316;2022-10-16T13:02:43;3.53;;;0.83;;
6825;SDS011;3451;52.476;13.316;2022-10-16T13:05:20;1.30;;;0.70;;
6825;SDS011;3451;52.476;13.316;2022-10-16T13:07:52;2.37;;;0.70;;
6825;SDS011;3451;52.476;13.316;2022-10-16T13:13:33;5.33;;;1.90;;
6825;SDS011;3451;52.476;13.316;2022-10-16T13:15:41;3.87;;;1.80;;
6825;SDS011;3451;52.476;13.316;2022-10-16T13:20:51;5.30;;;1.57;;
6825;SDS011;3451;52.476;13.316;2022-10-16T13:23:30;8.90;;;2.00;;
6825;SDS011;3451;52.476;13.316;2022-10-16T13:26:11;3.90;;;1.20;;
6825;SDS011;3451;52.476;13.316;2022-10-16T13:28:40;3.70;;;1.40;;
6825;SDS011;3451;52.476;13.316;2022-10-16T13:31:10;1.17;;;0.77;;
6825;SDS011;3451;52.476;13.316;2022-10-16T13:33:39;3.60;;;0.70;;
6825;SDS011;3451;52.476;13.316;2022-10-16T13:36:18;1.50;;;0.83;;
6825;SDS011;3451;52.476;13.316;2022-10-16T13:38:45;2.20;;;0.70;;
6825;SDS011;3451;52.476;13.316;2022-10-16T13:41:16;1.07;;;0.63;;
6825;SDS011;3451;52.476;13.316;2022-10-16T13:43:46;3.17;;;1.20;;
6825;SDS011;3451;52.476;13.316;2022-10-16T13:46:13;1.73;;;0.77;;
6825;SDS011;3451;52.476;13.316;2022-10-16T13:48:40;4.07;;;0.80;;
6825;SDS011;3451;52.476;13.316;2022-10-16T13:51:14;2.23;;;1.00;;
6825;SDS011;3451;52.476;13.316;2022-10-16T13:53:41;3.27;;;0.90;;
6825;SDS011;3451;52.476;13.316;2022-10-16T13:56:10;3.57;;;0.70;;
6825;SDS011;3451;52.476;13.316;2022-10-16T13:58:38;0.87;;;0.60;;
6825;SDS011;3451;52.476;13.316;2022-10-16T14:01:06;1.83;;;0.70;;
6825;SDS011;3451;52.476;13.316;2022-10-16T14:03:40;3.43;;;0.70;;
6825;SDS011;3451;52.476;13.316;2022-10-16T14:06:13;1.27;;;0.53;;
6825;SDS011;3451;52.476;13.316;2022-10-16T14:08:45;1.37;;;0.80;;
6825;SDS011;3451;52.476;13.316;2022-10-16T14:11:13;3.53;;;0.80;;
6825;SDS011;3451;52.476;13.316;2022-10-16T14:13:46;1.10;;;0.80;;
6825;SDS011;3451;52.476;13.316;2022-10-16T14:16:31;0.90;;;0.60;;
6825;SDS011;3451;52.476;13.316;2022-10-16T14:19:04;1.03;;;0.80;;
6825;SDS011;3451;52.476;13.316;2022-10-16T14:21:36;1.07;;;0.80;;
6825;SDS011;3451;52.476;13.316;2022-10-16T14:24:13;3.70;;;0.70;;
6825;SDS011;3451;52.476;13.316;2022-10-16T14:26:43;1.90;;;0.80;;
6825;SDS011;3451;52.476;13.316;2022-10-16T14:29:19;2.20;;;1.00;;
6825;SDS011;3451;52.476;13.316;2022-10-16T14:32:03;2.87;;;0.83;;
6825;SDS011;3451;52.476;13.316;2022-10-16T14:34:30;2.40;;;0.70;;
6825;SDS011;3451;52.476;13.316;2022-10-16T14:37:06;1.87;;;1.20;;
6825;SDS011;3451;52.476;13.316;2022-10-16T14:39:39;3.17;;;0.90;;
6825;SDS011;3451;52.476;13.316;2022-10-16T14:42:14;2.13;;;0.63;;
6825;SDS011;3451;52.476;13.316;2022-10-16T14:44:40;0.90;;;0.50;;
6825;SDS011;3451;52.476;13.316;2022-10-16T14:47:08;3.17;;;0.87;;
6825;SDS011;3451;52.476;13.316;2022-10-16T14:49:35;3.03;;;0.80;;
6825;SDS011;3451;52.476;13.316;2022-10-16T14:52:01;7.60;;;0.90;;
6825;SDS011;3451;52.476;13.316;2022-10-16T14:54:28;5.73;;;0.90;;
6825;SDS011;3451;52.476;13.316;2022-10-16T14:56:54;2.77;;;0.77;;
6825;SDS011;3451;52.476;13.316;2022-10-16T14:59:24;3.13;;;0.80;;
6825;SDS011;3451;52.476;13.316;2022-10-16T15:01:51;2.93;;;0.80;;
6825;SDS011;3451;52.476;13.316;2022-10-16T15:04:17;3.07;;;0.87;;
6825;SDS011;3451;52.476;13.316;2022-10-16T15:06:44;2.07;;;0.80;;
6825;SDS011;3451;52.476;13.316;2022-10-16T15:09:10;1.87;;;0.70;;
6825;SDS011;3451;52.476;13.316;2022-10-16T15:11:37;1.07;;;0.73;;
6825;SDS011;3451;52.476;13.316;2022-10-16T15:14:04;1.60;;;1.00;;
6825;SDS011;3451;52.476;13.316;2022-10-16T15:16:30;4.70;;;0.80;;
6825;SDS011;3451;52.476;13.316;2022-10-16T15:18:57;1.50;;;0.70;;
6825;SDS011;3451;52.476;13.316;2022-10-16T15:21:30;2.63;;;0.80;;
6825;SDS011;3451;52.476;13.316;2022-10-16T15:23:57;1.37;;;0.70;;
6825;SDS011;3451;52.476;13.316;2022-10-16T15:26:24;2.37;;;0.80;;
6825;SDS011;3451;52.476;13.316;2022-10-16T15:28:51;1.20;;;0.70;;
6825;SDS011;3451;52.476;13.316;2022-10-16T15:31:17;3.00;;;0.80;;
6825;SDS011;3451;52.476;13.316;2022-10-16T15:33:44;2.70;;;0.83;;
6825;SDS011;3451;52.476;13.316;2022-10-16T15:36:13;2.23;;;0.70;;
6825;SDS011;3451;52.476;13.316;2022-10-16T15:38:39;3.23;;;0.90;;
6825;SDS011;3451;52.476;13.316;2022-10-16T15:41:06;3.07;;;0.70;;
6825;SDS011;3451;52.476;13.316;2022-10-16T15:43:32;2.77;;;0.73;;
6825;SDS011;3451;52.476;13.316;2022-10-16T15:46:02;1.43;;;0.80;;
6825;SDS011;3451;52.476;13.316;2022-10-16T15:48:29;1.30;;;0.80;;
6825;SDS011;3451;52.476;13.316;2022-10-16T15:50:56;2.30;;;0.90;;
6825;SDS011;3451;52.476;13.316;2022-10-16T15:53:22;1.00;;;0.80;;
6825;SDS011;3451;52.476;13.316;2022-10-16T15:55:49;1.77;;;1.00;;
6825;SDS011;3451;52.476;13.316;2022-10-16T15:58:15;1.90;;;1.00;;
6825;SDS011;3451;52.476;13.316;2022-10-16T16:00:41;3.23;;;1.00;;
6825;SDS011;3451;52.476;13.316;2022-10-16T16:03:07;5.60;;;1.00;;
6825;SDS011;3451;52.476;13.316;2022-10-16T16:05:37;1.23;;;0.80;;
6825;SDS011;3451;52.476;13.316;2022-10-16T16:08:06;1.63;;;0.90;;
6825;SDS011;3451;52.476;13.316;2022-10-16T16:10:33;2.10;;;1.00;;
6825;SDS011;3451;52.476;13.316;2022-10-16T16:12:59;2.10;;;0.80;;
6825;SDS011;3451;52.476;13.316;2022-10-16T16:15:25;1.83;;;1.10;;
6825;SDS011;3451;52.476;13.316;2022-10-16T16:17:51;2.90;;;1.17;;
6825;SDS011;3451;52.476;13.316;2022-10-16T16:20:18;1.47;;;0.77;;
6825;SDS011;3451;52.476;13.316;2022-10-16T16:22:44;2.10;;;0.83;;
6825;SDS011;3451;52.476;13.316;2022-10-16T16:25:10;4.10;;;1.10;;
6825;SDS011;3451;52.476;13.316;2022-10-16T16:27:36;4.03;;;1.00;;
6825;SDS011;3451;52.476;13.316;2022-10-16T16:30:09;1.33;;;0.93;;
6825;SDS011;3451;52.476;13.316;2022-10-16T16:32:41;1.30;;;1.00;;
6825;SDS011;3451;52.476;13.316;2022-10-16T16:35:08;2.90;;;1.30;;
6825;SDS011;3451;52.476;13.316;2022-10-16T16:37:34;2.30;;;1.00;;